Flight Track Log - Related Links

Times and Time Zones

All times are in EDT time to prevent confusion due to time zone crossing. See the PAG115 flight status page for this flight to view local times or setup timezone preferences in your user account.

Time Position Orientation Groundspeed Altitude Reporting Facility
EDT Latitude Longitude Course Direction KTS MPH feet Rate Location/Type
Fri 03:18:15 PM 49.8833 -97.2333 316° Northwest 100 115 800  Level Winnipeg Center
Fri 03:19:15 PM 49.9167 -97.2833 316° Northwest 140 161 2,600 1,900 Climbing Winnipeg Center
Fri 03:20:15 PM 49.9500 -97.3000 342° North 150 173 4,600 1,950 Climbing Winnipeg Center
Fri 03:21:15 PM 50.0000 -97.2833 12° North 160 184 6,500 1,750 Climbing Winnipeg Center
Fri 03:22:15 PM 50.0500 -97.2833 360° North 170 196 8,100 1,650 Climbing Winnipeg Center
Fri 03:23:15 PM 50.1000 -97.2833 360° North 170 196 9,800 1,450 Climbing Winnipeg Center
Fri 03:24:15 PM 50.1500 -97.2833 360° North 190 219 11,000 1,300 Climbing Winnipeg Center
Fri 03:25:15 PM 50.2000 -97.2833 360° North 190 219 12,400 1,250 Climbing Winnipeg Center
Fri 03:26:15 PM 50.2500 -97.3000 348° North 190 219 13,500 1,000 Climbing Winnipeg Center
Fri 03:27:15 PM 50.3000 -97.3000 360° North 200 230 14,400 1,000 Climbing Winnipeg Center
Fri 03:28:15 PM 50.3667 -97.3000 360° North 200 230 15,500 1,000 Climbing Winnipeg Center
Fri 03:29:15 PM 50.4167 -97.3000 360° North 190 219 16,400 900 Climbing Winnipeg Center
Fri 03:30:15 PM 50.4667 -97.3000 360° North 190 219 17,300 800 Climbing Winnipeg Center
Fri 03:31:15 PM 50.5167 -97.3000 360° North 190 219 18,000 700 Climbing Winnipeg Center
Fri 03:32:15 PM 50.5833 -97.3000 360° North 190 219 18,700 650 Climbing Winnipeg Center
Fri 03:33:15 PM 50.6333 -97.3333 337° Northwest 190 219 19,300 600 Climbing Winnipeg Center
Fri 03:34:15 PM 50.6833 -97.3333 360° North 190 219 19,900 400 Climbing Winnipeg Center
Fri 03:35:15 PM 50.7333 -97.3333 360° North 200 230 20,100 50 Climbing Winnipeg Center
Fri 03:36:15 PM 50.8000 -97.3333 360° North 220 253 20,000  Descending Winnipeg Center
Fri 03:37:15 PM 50.8667 -97.3667 342° North 230 265 20,100 50 Climbing Winnipeg Center
Fri 03:38:15 PM 50.9333 -97.3667 360° North 230 265 20,100 -50 Level Winnipeg Center
Fri 03:39:15 PM 51.0000 -97.3667 360° North 230 265 20,000 -50 Descending Winnipeg Center
Fri 03:40:15 PM 51.0500 -97.3667 360° North 230 265 20,000  Level Winnipeg Center
Fri 03:41:15 PM 51.1167 -97.3667 360° North 230 265 20,000  Level Winnipeg Center
Fri 03:42:15 PM 51.1833 -97.3667 360° North 230 265 20,000  Level Winnipeg Center
Fri 03:43:15 PM 51.2500 -97.4000 343° North 230 265 20,000 50 Level Winnipeg Center
Fri 03:44:15 PM 51.3167 -97.4000 360° North 230 265 20,100 50 Climbing Winnipeg Center
Fri 03:45:15 PM 51.3667 -97.4000 360° North 230 265 20,100 -50 Level Winnipeg Center
Fri 03:46:15 PM 51.4333 -97.4000 360° North 230 265 20,000 -50 Descending Winnipeg Center
Fri 03:47:15 PM 51.5000 -97.4000 360° North 230 265 20,000 50 Level Winnipeg Center
Fri 03:48:15 PM 51.5667 -97.4167 351° North 220 253 20,100  Climbing Winnipeg Center
Fri 03:49:15 PM 51.6167 -97.4167 360° North 220 253 20,000 -50 Descending Winnipeg Center
Fri 03:50:15 PM 51.6833 -97.4167 360° North 230 265 20,000  Level Winnipeg Center
Fri 03:51:15 PM 51.7500 -97.4167 360° North 230 265 20,000  Level Winnipeg Center
Fri 03:52:15 PM 51.8167 -97.4500 343° North 220 253 20,000 -50 Level Winnipeg Center
Fri 03:53:15 PM 51.8667 -97.4500 360° North 220 253 19,900  Descending Winnipeg Center
Fri 03:54:15 PM 51.9333 -97.4500 360° North 220 253 20,000 50 Climbing Winnipeg Center
Fri 03:55:15 PM 52.0000 -97.4500 360° North 220 253 20,000  Level Winnipeg Center
Fri 03:56:15 PM 52.0500 -97.4500 360° North 230 265 20,000  Level Winnipeg Center
Fri 03:57:15 PM 52.1167 -97.4833 343° North 220 253 20,000 50 Level Winnipeg Center
Fri 03:58:15 PM 52.1833 -97.4833 360° North 230 265 20,100 50 Climbing Winnipeg Center
Fri 03:59:15 PM 52.2333 -97.4833 360° North 220 253 20,100  Level Winnipeg Center
Fri 04:00:15 PM 52.3000 -97.5167 343° North 220 253 20,100  Level Winnipeg Center
Fri 04:01:15 PM 52.3667 -97.5167 360° North 220 253 20,100  Level Winnipeg Center
Fri 04:02:15 PM 52.4167 -97.5167 360° North 220 253 20,100  Level Winnipeg Center
Fri 04:03:15 PM 52.4833 -97.5167 360° North 220 253 20,100  Level Winnipeg Center
Fri 04:04:15 PM 52.5500 -97.5167 360° North 220 253 20,100  Level Winnipeg Center
Fri 04:05:15 PM 52.6000 -97.5500 338° Northwest 220 253 20,100  Level Winnipeg Center
Fri 04:06:15 PM 52.6667 -97.5500 360° North 220 253 20,100  Level Winnipeg Center
Fri 04:07:15 PM 52.7333 -97.5500 360° North 220 253 20,100  Level Winnipeg Center
Fri 04:08:15 PM 52.8000 -97.5500 360° North 220 253 20,100  Level Winnipeg Center
Fri 04:09:15 PM 52.8500 -97.5500 360° North 220 253 20,100  Level Winnipeg Center
Fri 04:10:15 PM 52.9167 -97.5500 360° North 220 253 20,100  Level Winnipeg Center
Fri 04:11:15 PM 52.9667 -97.5833 338° Northwest 220 253 20,100  Level Winnipeg Center
Fri 04:12:15 PM 53.0333 -97.5833 360° North 220 253 20,100 -50 Level Winnipeg Center
Fri 04:13:15 PM 53.1000 -97.5833 360° North 220 253 20,000 -50 Descending Winnipeg Center
Fri 04:14:15 PM 53.1500 -97.5833 360° North 220 253 20,000 -400 Level Winnipeg Center
Fri 04:15:15 PM 53.2167 -97.5833 360° North 230 265 19,200 -750 Descending Winnipeg Center
Fri 04:16:15 PM 53.2833 -97.6000 351° North 250 288 18,500 -800 Descending Winnipeg Center
Fri 04:17:15 PM 53.3833 -97.6167 354° North 260 299 17,600 -800 Descending Winnipeg Center
Fri 04:18:15 PM 53.4500 -97.6167 360° North 270 311 16,900 -650 Descending Winnipeg Center
Fri 04:19:15 PM 53.5167 -97.6333 352° North 270 311 16,300 -600 Descending Winnipeg Center
Fri 04:20:15 PM 53.6000 -97.6333 360° North 270 311 15,700 -550 Descending Winnipeg Center
Fri 04:21:15 PM 53.6667 -97.6333 360° North 260 299 15,200 -600 Descending Winnipeg Center
Fri 04:22:15 PM 53.7500 -97.6500 353° North 270 311 14,500 -650 Descending Winnipeg Center
Fri 04:23:15 PM 53.8167 -97.6667 352° North 270 311 13,900 -550 Descending Winnipeg Center
Fri 04:24:15 PM 53.9000 -97.6500 North 260 299 13,400 -600 Descending Winnipeg Center
Fri 04:25:15 PM 53.9667 -97.6667 352° North 260 299 12,700 -650 Descending Winnipeg Center
Fri 04:26:15 PM 54.0333 -97.6833 352° North 260 299 12,100 -500 Descending Winnipeg Center
Fri 04:27:15 PM 54.1167 -97.6833 360° North 260 299 11,700 -400 Descending Winnipeg Center
Fri 04:28:15 PM 54.1833 -97.6833 360° North 260 299 11,300 -450 Descending Winnipeg Center
Fri 04:29:15 PM 54.2500 -97.7000 352° North 260 299 10,800 -500 Descending Winnipeg Center

Login

Don't have an account? Register now (free) for customized features, flight alerts, and more!